createdAt,value
2023-11-22T00:02:23.537Z,102459.75
2023-11-22T00:04:51.740Z,102459.69
2023-11-22T00:07:19.776Z,102461.50
2023-11-22T00:09:48.404Z,102460.63
2023-11-22T00:12:18.816Z,102442.94
2023-11-22T00:14:47.135Z,102457.06
2023-11-22T00:17:18.587Z,102454.38
2023-11-22T00:19:46.587Z,102456.19
2023-11-22T00:22:15.818Z,102435.53
2023-11-22T00:24:47.027Z,102453.63
2023-11-22T00:27:16.616Z,102461.69
2023-11-22T00:29:47.592Z,102456.31
2023-11-22T00:32:16.977Z,102457.19
2023-11-22T00:34:44.877Z,102457.25
2023-11-22T00:37:13.051Z,102450.16
2023-11-22T00:39:40.944Z,102444.78
2023-11-22T00:42:08.982Z,102446.72
2023-11-22T00:44:37.267Z,102441.31
2023-11-22T00:47:06.224Z,102437.81
2023-11-22T00:49:35.578Z,102441.41
2023-11-22T00:52:04.412Z,102435.13
2023-11-22T00:54:32.551Z,102434.38
2023-11-22T00:57:01.041Z,102424.56
2023-11-22T00:59:29.065Z,102427.28
2023-11-22T01:01:57.200Z,102421.09
2023-11-22T01:04:25.338Z,102421.09
2023-11-22T01:06:54.645Z,102422.81
2023-11-22T01:09:22.625Z,102425.34
2023-11-22T01:11:51.554Z,102414.53
2023-11-22T01:14:19.804Z,102412.72
2023-11-22T01:16:47.773Z,102413.47
2023-11-22T01:19:15.835Z,102422.44
2023-11-22T01:21:43.875Z,102413.38
2023-11-22T01:24:13.298Z,102415.00
2023-11-22T01:26:41.475Z,102406.03
2023-11-22T01:29:09.436Z,102413.28
2023-11-22T01:31:37.494Z,102407.97
2023-11-22T01:34:08.370Z,102415.09
2023-11-22T01:36:37.638Z,102411.44
2023-11-22T01:39:06.128Z,102411.53
2023-11-22T01:41:35.558Z,102403.34
2023-11-22T01:44:04.027Z,102407.03
2023-11-22T01:46:32.478Z,102407.91
2023-11-22T01:49:00.495Z,102410.59
2023-11-22T01:51:28.983Z,102410.59
2023-11-22T01:53:59.469Z,102392.00
2023-11-22T01:56:29.050Z,102397.19
2023-11-22T01:59:00.635Z,102396.22
2023-11-22T02:01:29.861Z,102384.69
2023-11-22T02:03:57.938Z,102378.31
2023-11-22T02:06:26.920Z,102358.88
2023-11-22T02:08:54.835Z,102368.53
2023-11-22T02:11:23.624Z,102374.75
2023-11-22T02:13:51.769Z,102364.94
2023-11-22T02:16:22.014Z,102367.66
2023-11-22T02:18:50.558Z,102364.94
2023-11-22T02:21:19.161Z,102360.31
2023-11-22T02:23:48.797Z,102357.72
2023-11-22T02:26:19.907Z,102359.56
2023-11-22T02:28:49.317Z,102355.03
2023-11-22T02:31:18.648Z,102347.78
2023-11-22T02:33:46.614Z,102332.47
2023-11-22T02:36:14.608Z,102341.44
2023-11-22T02:38:43.466Z,102344.25
2023-11-22T02:41:12.971Z,102326.34
2023-11-22T02:43:40.964Z,102318.38
2023-11-22T02:46:09.196Z,102328.28
2023-11-22T02:48:38.547Z,102318.44
2023-11-22T02:51:07.738Z,102326.53
2023-11-22T02:53:35.919Z,102323.16
2023-11-22T02:56:04.089Z,102315.06
2023-11-22T02:58:33.693Z,102309.81
2023-11-22T03:01:01.660Z,102304.53
2023-11-22T03:03:29.750Z,102293.81
2023-11-22T03:05:57.797Z,102289.31
2023-11-22T03:08:24.781Z,102291.13
2023-11-22T03:10:53.174Z,102293.06
2023-11-22T03:13:21.212Z,102269.72
2023-11-22T03:15:51.932Z,102279.72
2023-11-22T03:18:22.665Z,102281.63
2023-11-22T03:20:55.220Z,102280.78
2023-11-22T03:23:23.386Z,102285.19
2023-11-22T03:25:51.331Z,102284.31
2023-11-22T03:28:19.274Z,102272.47
2023-11-22T03:30:47.177Z,102260.63
2023-11-22T03:33:16.794Z,102266.88
2023-11-22T03:35:44.830Z,102267.63
2023-11-22T03:38:12.807Z,102269.38
2023-11-22T03:40:41.373Z,102268.41
2023-11-22T03:43:11.294Z,102272.75
2023-11-22T03:45:39.341Z,102268.22
2023-11-22T03:48:07.551Z,102273.59
2023-11-22T03:50:37.351Z,102278.88
2023-11-22T03:53:05.352Z,102276.19
2023-11-22T03:55:33.281Z,102265.53
2023-11-22T03:58:01.223Z,102265.28
2023-11-22T04:00:29.423Z,102272.28
2023-11-22T04:03:00.609Z,102282.25
2023-11-22T04:05:28.634Z,102282.25
2023-11-22T04:07:58.060Z,102250.63
2023-11-22T04:10:26.108Z,102267.78
2023-11-22T04:12:54.192Z,102261.63
2023-11-22T04:15:22.254Z,102249.22
2023-11-22T04:17:50.795Z,102249.34
2023-11-22T04:20:19.256Z,102254.81
2023-11-22T04:22:47.309Z,102246.72
2023-11-22T04:25:16.700Z,102236.06
2023-11-22T04:27:44.700Z,102237.91
2023-11-22T04:30:15.286Z,102228.94
2023-11-22T04:32:43.780Z,102219.13
2023-11-22T04:35:12.215Z,102217.41
2023-11-22T04:37:40.268Z,102212.75
2023-11-22T04:40:09.773Z,102211.03
2023-11-22T04:42:39.382Z,102195.72
2023-11-22T04:45:08.212Z,102190.31
2023-11-22T04:47:36.527Z,102186.69
2023-11-22T04:50:05.835Z,102185.81
2023-11-22T04:52:34.375Z,102175.97
2023-11-22T04:55:02.286Z,102167.06
2023-11-22T04:57:30.182Z,102152.59
2023-11-22T05:00:01.760Z,102138.91
2023-11-22T05:02:29.846Z,102133.44
2023-11-22T05:04:58.167Z,102149.69
2023-11-22T05:07:26.161Z,102153.78
2023-11-22T05:09:54.069Z,102145.16
2023-11-22T05:12:22.076Z,102151.84
2023-11-22T05:14:50.021Z,102144.75
2023-11-22T05:17:19.405Z,102164.16
2023-11-22T05:19:47.427Z,102160.59
2023-11-22T05:22:15.367Z,102170.50
2023-11-22T05:24:43.326Z,102166.88
2023-11-22T05:27:11.789Z,102159.59
2023-11-22T05:29:43.611Z,102138.81
2023-11-22T05:32:19.826Z,102144.97
2023-11-22T05:34:47.757Z,102133.31
2023-11-22T05:37:15.742Z,102145.84
2023-11-22T05:39:44.055Z,102140.44
2023-11-22T05:42:12.873Z,102130.44
2023-11-22T05:44:40.878Z,102141.09
2023-11-22T05:47:09.052Z,102141.22
2023-11-22T05:49:38.539Z,102132.22
2023-11-22T05:52:07.354Z,102135.81
2023-11-22T05:54:35.383Z,102130.44
2023-11-22T05:57:03.316Z,102130.53
2023-11-22T05:59:31.490Z,102126.97
2023-11-22T06:01:59.468Z,102122.66
2023-11-22T06:04:27.494Z,102113.69
2023-11-22T06:06:56.801Z,102113.69
2023-11-22T06:09:24.959Z,102126.19
2023-11-22T06:11:52.846Z,102133.44
2023-11-22T06:14:21.342Z,102127.03
2023-11-22T06:16:49.350Z,102111.06
2023-11-22T06:19:17.293Z,102100.22
2023-11-22T06:21:45.198Z,102096.66
2023-11-22T06:24:17.079Z,102090.38
2023-11-22T06:26:47.269Z,102082.63
2023-11-22T06:29:15.773Z,102081.75
2023-11-22T06:31:44.402Z,102072.91
2023-11-22T06:34:13.448Z,102063.88
2023-11-22T06:36:41.481Z,102048.00
2023-11-22T06:39:10.343Z,102048.53
2023-11-22T06:41:39.704Z,102041.44
2023-11-22T06:44:07.870Z,102043.28
2023-11-22T06:46:35.909Z,102038.97
2023-11-22T06:49:04.020Z,102031.00
2023-11-22T06:51:32.932Z,102020.53
2023-11-22T06:54:02.187Z,102018.81
2023-11-22T06:56:30.567Z,102009.84
2023-11-22T06:58:59.939Z,102002.84
2023-11-22T07:01:27.882Z,101996.72
2023-11-22T07:03:56.324Z,101994.13
2023-11-22T07:06:24.581Z,101985.72
2023-11-22T07:08:52.524Z,101983.66
2023-11-22T07:11:27.245Z,101988.19
2023-11-22T07:13:56.698Z,102010.72
2023-11-22T07:16:26.295Z,102002.75
2023-11-22T07:18:54.351Z,101985.84
2023-11-22T07:21:22.863Z,101976.13
2023-11-22T07:23:52.460Z,101980.88
2023-11-22T07:26:21.879Z,101981.94
2023-11-22T07:28:49.961Z,101975.06
2023-11-22T07:31:18.141Z,101972.59
2023-11-22T07:33:48.311Z,101978.06
2023-11-22T07:36:17.034Z,101968.28
2023-11-22T07:38:45.106Z,101955.00
2023-11-22T07:41:13.257Z,101945.31
2023-11-22T07:43:41.223Z,101949.84
2023-11-22T07:46:13.796Z,101950.91
2023-11-22T07:48:43.085Z,101948.34
2023-11-22T07:51:12.538Z,101950.16
2023-11-22T07:53:41.654Z,101938.66
2023-11-22T07:56:10.723Z,101929.75
2023-11-22T07:58:38.857Z,101925.38
2023-11-22T08:01:07.586Z,101924.63
2023-11-22T08:03:36.321Z,101929.13
2023-11-22T08:06:06.304Z,101918.44
2023-11-22T08:08:39.894Z,101909.41
2023-11-22T08:11:15.927Z,101891.00
2023-11-22T08:13:46.096Z,101897.78
2023-11-22T08:16:15.315Z,101891.53
2023-11-22T08:18:44.732Z,101874.53
2023-11-22T08:21:13.231Z,101871.84
2023-11-22T08:23:42.907Z,101849.31
2023-11-22T08:26:13.061Z,101851.13
2023-11-22T08:28:41.526Z,101839.41
2023-11-22T08:31:10.923Z,101834.75
2023-11-22T08:33:39.834Z,101833.88
2023-11-22T08:36:09.175Z,101817.84
2023-11-22T08:38:36.593Z,101808.03
2023-11-22T08:41:07.259Z,101795.56
2023-11-22T08:43:35.854Z,101791.13
2023-11-22T08:46:13.678Z,101782.97
2023-11-22T08:48:44.219Z,101783.94
2023-11-22T08:51:12.939Z,101776.81
2023-11-22T08:53:41.456Z,101775.94
2023-11-22T08:56:12.310Z,101768.72
2023-11-22T08:58:41.140Z,101750.97
2023-11-22T09:01:09.622Z,101740.41
2023-11-22T09:03:37.825Z,101737.84
2023-11-22T09:06:08.473Z,101734.41
2023-11-22T09:08:37.428Z,101736.25
2023-11-22T09:11:07.600Z,101728.28
2023-11-22T09:13:37.312Z,101736.38
2023-11-22T09:16:06.699Z,101716.66
2023-11-22T09:18:35.202Z,101715.78
2023-11-22T09:21:03.411Z,101710.41
2023-11-22T09:23:31.451Z,101715.91
2023-11-22T09:25:59.446Z,101710.53
2023-11-22T09:28:27.368Z,101715.91
2023-11-22T09:31:02.670Z,101691.91
2023-11-22T09:33:30.766Z,101672.28
2023-11-22T09:35:59.258Z,101674.97
2023-11-22T09:38:27.313Z,101670.47
2023-11-22T09:40:55.621Z,101658.81
2023-11-22T09:43:24.553Z,101644.63
2023-11-22T09:45:57.680Z,101640.97
2023-11-22T09:48:29.763Z,101637.28
2023-11-22T09:51:04.306Z,101608.81
2023-11-22T09:53:35.718Z,101622.88
2023-11-22T09:56:07.643Z,101605.00
2023-11-22T09:58:40.494Z,101596.09
2023-11-22T10:01:09.046Z,101597.69
2023-11-22T10:03:38.761Z,101575.28
2023-11-22T10:06:07.504Z,101578.84
2023-11-22T10:08:36.885Z,101559.13
2023-11-22T10:11:06.292Z,101542.00
2023-11-22T10:13:34.399Z,101539.44
2023-11-22T10:16:11.965Z,101523.28
2023-11-22T10:18:44.046Z,101521.53
2023-11-22T10:21:23.120Z,101504.56
2023-11-22T10:23:52.828Z,101487.91
2023-11-22T10:26:21.020Z,101464.50
2023-11-22T10:28:49.024Z,101466.47
2023-11-22T10:31:18.170Z,101435.00
2023-11-22T10:33:47.674Z,101447.03
2023-11-22T10:36:16.126Z,101439.19
2023-11-22T10:38:47.314Z,101431.09
2023-11-22T10:41:15.833Z,101422.41
2023-11-22T10:43:44.017Z,101416.16
2023-11-22T10:46:15.179Z,101414.56
2023-11-22T10:48:43.762Z,101401.09
2023-11-22T10:51:16.009Z,101394.75
2023-11-22T10:53:50.668Z,101382.28
2023-11-22T10:56:22.135Z,101366.34
2023-11-22T10:58:52.888Z,101354.63
2023-11-22T11:01:22.722Z,101352.91
2023-11-22T11:03:58.361Z,101336.88
2023-11-22T11:06:34.543Z,101339.72
2023-11-22T11:09:06.520Z,101329.91
2023-11-22T11:11:36.090Z,101313.13
2023-11-22T11:14:06.527Z,101313.88
2023-11-22T11:16:38.935Z,101307.66
2023-11-22T11:19:08.906Z,101292.47
2023-11-22T11:21:38.322Z,101262.88
2023-11-22T11:24:06.875Z,101264.63
2023-11-22T11:26:36.799Z,101235.34
2023-11-22T11:29:05.262Z,101235.03
2023-11-22T11:31:36.587Z,101210.19
2023-11-22T11:34:09.658Z,101215.94
2023-11-22T11:36:40.254Z,101207.88
2023-11-22T11:39:12.080Z,101199.91
2023-11-22T11:41:41.004Z,101194.44
2023-11-22T11:44:11.027Z,101179.25
2023-11-22T11:46:40.451Z,101162.97
2023-11-22T11:49:10.062Z,101152.22
2023-11-22T11:51:39.712Z,101140.63
2023-11-22T11:54:10.406Z,101127.28
2023-11-22T11:56:39.165Z,101118.22
2023-11-22T11:59:08.158Z,101119.94
2023-11-22T12:01:36.253Z,101103.06
2023-11-22T12:04:05.357Z,101087.78
2023-11-22T12:06:38.022Z,101092.53
2023-11-22T12:09:07.607Z,101082.88
2023-11-22T12:11:35.762Z,101076.66
2023-11-22T12:14:04.769Z,101079.47
2023-11-22T12:16:35.206Z,101075.81
2023-11-22T12:19:04.022Z,101081.19
2023-11-22T12:21:32.933Z,101014.56
2023-11-22T12:24:01.466Z,101046.09
2023-11-22T12:26:34.418Z,101052.44
2023-11-22T12:29:06.097Z,101035.72
2023-11-22T12:31:36.301Z,101039.25
2023-11-22T12:34:05.576Z,101040.09
2023-11-22T12:36:34.135Z,101029.47
2023-11-22T12:39:02.043Z,101023.69
2023-11-22T12:41:33.862Z,101013.34
2023-11-22T12:44:06.204Z,101002.56
2023-11-22T12:46:47.839Z,100998.31
2023-11-22T12:49:16.458Z,100987.69
2023-11-22T12:51:49.158Z,100979.63
2023-11-22T12:54:17.312Z,100972.50
2023-11-22T12:56:46.663Z,100962.72
2023-11-22T12:59:14.673Z,100942.94
2023-11-22T13:01:42.780Z,100946.47
2023-11-22T13:04:11.514Z,100948.16
2023-11-22T13:06:40.119Z,100923.84
2023-11-22T13:09:08.659Z,100918.47
2023-11-22T13:11:36.695Z,100911.13
2023-11-22T13:14:07.067Z,100889.75
2023-11-22T13:16:35.909Z,100893.16
2023-11-22T13:19:03.838Z,100857.59
2023-11-22T13:21:32.411Z,100867.84
2023-11-22T13:24:00.916Z,100853.38
2023-11-22T13:26:28.935Z,100842.63
2023-11-22T13:28:57.166Z,100830.03
2023-11-22T13:31:26.607Z,100826.50
2023-11-22T13:33:54.564Z,100806.94
2023-11-22T13:36:22.683Z,100799.72
2023-11-22T13:38:50.633Z,100786.28
2023-11-22T13:41:18.821Z,100768.72
2023-11-22T13:43:47.792Z,100758.78
2023-11-22T13:46:16.577Z,100748.88
2023-11-22T13:48:45.938Z,100739.97
2023-11-22T13:51:13.853Z,100733.88
2023-11-22T13:53:45.578Z,100719.72
2023-11-22T13:56:15.201Z,100707.22
2023-11-22T13:58:44.323Z,100708.94
2023-11-22T14:01:17.595Z,100687.81
2023-11-22T14:03:47.141Z,100688.53
2023-11-22T14:06:18.078Z,100658.94
2023-11-22T14:08:46.401Z,100650.00
2023-11-22T14:11:14.855Z,100635.25
2023-11-22T14:13:42.837Z,100625.09
2023-11-22T14:16:10.904Z,100620.59
2023-11-22T14:18:39.899Z,100605.56
2023-11-22T14:21:09.782Z,100582.94
2023-11-22T14:23:38.002Z,100570.63
2023-11-22T14:26:06.622Z,100557.03
2023-11-22T14:28:34.787Z,100548.09
2023-11-22T14:31:04.610Z,100530.13
2023-11-22T14:33:33.538Z,100538.34
2023-11-22T14:36:01.589Z,100516.84
2023-11-22T14:38:32.125Z,100487.81
2023-11-22T14:41:00.059Z,100484.25
2023-11-22T14:43:27.932Z,100486.72
2023-11-22T14:45:56.716Z,100484.88
2023-11-22T14:48:24.831Z,100463.38
2023-11-22T14:50:53.007Z,100442.56
2023-11-22T14:53:21.054Z,100426.44
2023-11-22T14:55:50.474Z,100420.22
2023-11-22T14:58:18.582Z,100380.97
2023-11-22T15:00:46.558Z,100387.97
2023-11-22T15:03:14.942Z,100379.72
2023-11-22T15:05:43.448Z,100370.81
2023-11-22T15:08:11.370Z,100357.25
2023-11-22T15:10:39.314Z,100345.75
2023-11-22T15:13:09.886Z,100316.91
2023-11-22T15:15:37.994Z,100307.13
2023-11-22T15:18:06.047Z,100304.44
2023-11-22T15:20:34.850Z,100281.22
2023-11-22T15:23:04.423Z,100274.16
2023-11-22T15:25:32.632Z,100267.06
2023-11-22T15:28:01.255Z,100255.59
2023-11-22T15:30:30.624Z,100238.44
2023-11-22T15:32:58.649Z,100229.69
2023-11-22T15:35:26.903Z,100222.63
2023-11-22T15:37:56.090Z,100195.16
2023-11-22T15:40:24.304Z,100194.31
2023-11-22T15:42:52.225Z,100179.19
2023-11-22T15:45:20.296Z,100183.72
2023-11-22T15:47:49.714Z,100176.50
2023-11-22T15:50:17.958Z,100139.84
2023-11-22T15:52:46.078Z,100139.84
2023-11-22T15:55:14.567Z,100135.31
2023-11-22T15:57:42.610Z,100106.59
2023-11-22T16:00:12.350Z,100101.22
2023-11-22T16:02:40.997Z,100061.59
2023-11-22T16:05:12.725Z,100070.63
2023-11-22T16:07:43.168Z,100056.50
2023-11-22T16:10:11.617Z,100066.41
2023-11-22T16:12:39.666Z,100026.94
2023-11-22T16:15:08.273Z,100011.66
2023-11-22T16:17:37.114Z,100015.19
2023-11-22T16:20:11.969Z,99992.53
2023-11-22T16:22:45.667Z,99967.19
2023-11-22T16:25:14.761Z,99963.50
2023-11-22T16:27:43.040Z,99947.09
2023-11-22T16:30:11.431Z,99946.13
2023-11-22T16:32:40.417Z,99924.44
2023-11-22T16:35:09.478Z,99910.16
2023-11-22T16:37:37.467Z,99903.78
2023-11-22T16:40:09.833Z,99889.50
2023-11-22T16:42:39.044Z,99884.13
2023-11-22T16:45:08.204Z,99849.72
2023-11-22T16:47:37.726Z,99861.44
2023-11-22T16:50:07.365Z,99857.91
2023-11-22T16:52:35.433Z,99831.50
2023-11-22T16:55:05.069Z,99832.91
2023-11-22T16:57:34.519Z,99827.50
2023-11-22T17:00:06.176Z,99823.13
2023-11-22T17:02:34.264Z,99796.41
2023-11-22T17:05:02.380Z,99791.16
2023-11-22T17:07:30.558Z,99776.88
2023-11-22T17:09:58.836Z,99769.06
2023-11-22T17:12:27.651Z,99775.47
2023-11-22T17:14:57.039Z,99729.78
2023-11-22T17:17:29.100Z,99755.63
2023-11-22T17:19:57.134Z,99714.16
2023-11-22T17:22:28.404Z,99713.56
2023-11-22T17:24:58.680Z,99699.50
2023-11-22T17:27:26.886Z,99701.50
2023-11-22T17:29:57.244Z,99683.44
2023-11-22T17:32:25.404Z,99698.22
2023-11-22T17:34:53.536Z,99651.84
2023-11-22T17:37:21.471Z,99674.03
2023-11-22T17:39:50.836Z,99638.22
2023-11-22T17:42:18.793Z,99636.38
2023-11-22T17:44:50.366Z,99627.00
2023-11-22T17:47:20.737Z,99610.38
2023-11-22T17:49:50.083Z,99609.03
2023-11-22T17:52:18.281Z,99598.63
2023-11-22T17:54:47.579Z,99561.97
2023-11-22T17:57:16.115Z,99571.28
2023-11-22T17:59:44.068Z,99579.34
2023-11-22T18:02:11.998Z,99550.56
2023-11-22T18:04:41.353Z,99539.66
2023-11-22T18:07:14.919Z,99532.44
2023-11-22T18:09:43.892Z,99537.63
2023-11-22T18:12:12.063Z,99532.25
2023-11-22T18:14:40.066Z,99508.03
2023-11-22T18:17:08.018Z,99506.38
2023-11-22T18:19:36.034Z,99507.91
2023-11-22T18:22:05.703Z,99498.66
2023-11-22T18:24:33.957Z,99475.97
2023-11-22T18:27:02.074Z,99478.47
2023-11-22T18:29:30.164Z,99469.72
2023-11-22T18:31:59.721Z,99413.19
2023-11-22T18:34:33.166Z,99447.03
2023-11-22T18:37:03.783Z,99441.66
2023-11-22T18:39:34.857Z,99446.81
2023-11-22T18:42:02.928Z,99424.84
2023-11-22T18:44:31.992Z,99428.19
2023-11-22T18:47:00.106Z,99424.66
2023-11-22T18:49:28.273Z,99419.94
2023-11-22T18:51:56.226Z,99403.78
2023-11-22T18:54:24.328Z,99388.69
2023-11-22T18:56:53.668Z,99387.66
2023-11-22T18:59:21.766Z,99379.75
2023-11-22T19:01:51.409Z,99385.13
2023-11-22T19:04:20.667Z,99376.88
2023-11-22T19:06:48.546Z,99382.44
2023-11-22T19:09:16.563Z,99370.50
2023-11-22T19:11:46.051Z,99368.81
2023-11-22T19:14:15.817Z,99365.97
2023-11-22T19:16:45.478Z,99352.34
2023-11-22T19:19:13.630Z,99342.94
2023-11-22T19:21:41.531Z,99334.69
2023-11-22T19:24:09.970Z,99316.69
2023-11-22T19:26:37.964Z,99322.91
2023-11-22T19:29:05.919Z,99318.72
2023-11-22T19:31:35.161Z,99322.91
2023-11-22T19:34:03.300Z,99313.16
2023-11-22T19:36:33.056Z,99311.13
2023-11-22T19:39:01.006Z,99307.47
2023-11-22T19:41:30.569Z,99291.81
2023-11-22T19:43:58.653Z,99302.75
2023-11-22T19:46:26.660Z,99298.19
2023-11-22T19:48:56.221Z,99284.91
2023-11-22T19:51:24.128Z,99266.22
2023-11-22T19:53:52.108Z,99275.16
2023-11-22T19:56:20.290Z,99258.31
2023-11-22T19:58:48.226Z,99258.13
2023-11-22T20:01:16.218Z,99234.81
2023-11-22T20:03:44.208Z,99226.72
2023-11-22T20:06:14.450Z,99220.16
2023-11-22T20:08:42.452Z,99210.38
2023-11-22T20:11:11.669Z,99208.72
2023-11-22T20:13:39.879Z,99195.59
2023-11-22T20:16:07.998Z,99198.09
2023-11-22T20:18:36.010Z,99185.66
2023-11-22T20:21:04.018Z,99193.75
2023-11-22T20:23:33.362Z,99180.09
2023-11-22T20:26:03.981Z,99169.34
2023-11-22T20:28:32.916Z,99163.94
2023-11-22T20:31:00.828Z,99156.75
2023-11-22T20:33:29.145Z,99159.44
2023-11-22T20:35:57.258Z,99142.41
2023-11-22T20:38:25.342Z,99142.41
2023-11-22T20:40:54.699Z,99127.16
2023-11-22T20:43:22.974Z,99117.88
2023-11-22T20:45:50.980Z,99111.97
2023-11-22T20:48:19.095Z,99105.59
2023-11-22T20:50:48.465Z,99093.78
2023-11-22T20:53:16.464Z,99074.78
2023-11-22T20:55:44.412Z,99054.09
2023-11-22T20:58:13.681Z,99066.53
2023-11-22T21:00:41.553Z,99044.00
2023-11-22T21:03:09.922Z,99035.91
2023-11-22T21:05:38.029Z,99040.66
2023-11-22T21:08:13.242Z,99036.25
2023-11-22T21:10:47.239Z,99036.25
2023-11-22T21:13:16.514Z,99030.88
2023-11-22T21:15:47.004Z,99031.06
2023-11-22T21:18:15.330Z,99020.47
2023-11-22T21:20:43.457Z,99013.44
2023-11-22T21:23:12.774Z,99014.44
2023-11-22T21:25:40.700Z,99010.91
2023-11-22T21:28:08.794Z,99007.19
2023-11-22T21:30:38.120Z,98986.53
2023-11-22T21:33:06.115Z,98990.88
2023-11-22T21:35:34.122Z,98987.81
2023-11-22T21:38:02.205Z,98978.56
2023-11-22T21:40:30.299Z,98979.56
2023-11-22T21:42:58.513Z,98972.50
2023-11-22T21:45:26.566Z,98964.44
2023-11-22T21:47:56.233Z,98959.06
2023-11-22T21:50:24.223Z,98953.03
2023-11-22T21:52:53.384Z,98950.50
2023-11-22T21:55:21.279Z,98955.88
2023-11-22T21:57:49.267Z,98944.47
2023-11-22T22:00:18.002Z,98946.31
2023-11-22T22:02:46.193Z,98945.47
2023-11-22T22:05:15.879Z,98936.75
2023-11-22T22:07:43.790Z,98926.16
2023-11-22T22:10:11.800Z,98918.22
2023-11-22T22:12:39.794Z,98932.38
2023-11-22T22:15:08.459Z,98908.16
2023-11-22T22:17:36.653Z,98908.16
2023-11-22T22:20:05.463Z,98900.91
2023-11-22T22:22:35.047Z,98884.78
2023-11-22T22:25:05.027Z,98899.25
2023-11-22T22:27:33.578Z,98890.34
2023-11-22T22:30:02.311Z,98883.25
2023-11-22T22:32:31.746Z,98890.47
2023-11-22T22:35:00.404Z,98881.75
2023-11-22T22:37:28.336Z,98872.03
2023-11-22T22:39:57.605Z,98876.56
2023-11-22T22:42:25.558Z,98873.03
2023-11-22T22:44:53.790Z,98853.72
2023-11-22T22:47:21.739Z,98858.78
2023-11-22T22:49:51.063Z,98866.41
2023-11-22T22:52:19.221Z,98858.03
2023-11-22T22:54:47.197Z,98855.22
2023-11-22T22:57:16.799Z,98841.13
2023-11-22T22:59:46.120Z,98835.91
2023-11-22T23:02:14.812Z,98830.22
2023-11-22T23:04:44.392Z,98828.22
2023-11-22T23:07:14.809Z,98823.19
2023-11-22T23:09:43.161Z,98819.81
2023-11-22T23:12:11.442Z,98814.63
2023-11-22T23:14:40.827Z,98799.06
2023-11-22T23:17:08.901Z,98803.78
2023-11-22T23:19:37.087Z,98796.53
2023-11-22T23:22:07.534Z,98793.19
2023-11-22T23:24:37.385Z,98787.16
2023-11-22T23:27:07.252Z,98784.66
2023-11-22T23:29:38.477Z,98786.66
2023-11-22T23:32:11.234Z,98784.81
2023-11-22T23:34:39.888Z,98768.03
2023-11-22T23:37:07.957Z,98711.44
2023-11-22T23:39:35.974Z,98759.78
2023-11-22T23:42:08.486Z,98765.16
2023-11-22T23:44:36.597Z,98756.44
2023-11-22T23:47:04.629Z,98762.66
2023-11-22T23:49:33.925Z,98755.59
2023-11-22T23:52:03.976Z,98751.44
2023-11-22T23:54:32.582Z,98754.13
2023-11-22T23:57:01.006Z,98756.63
2023-11-22T23:59:28.937Z,98748.75
